Campeche Bay — P3ZF9 — position and weather

sailwx.info

Track history (hours):
 
Tides and Currents Weather Stations Pressure Air Temp Water Temp Dewpoint Dewpoint Depression Visibility Wind Speed Wind Dir Waves Ship Positions

Campeche Bay

Last reported at 2015-May-09 23:13 UTC. Time now 2015-Sep-02 00:28 UTC.
Position N 28°28' W 086°32'.
Warning: this ship's position is months out of date.

Length 90 m; draft 4.2 m.

Type: Cargo ship. MMSI: 209641000.

Date/timePositionNaut miles runAvg speedWind from/ knotsBaromVisibWave heightAir tempDewpointWater temp
2015-May-09 23:13N 28°28' W 086°32'47 9.1
2015-May-09 18:06N 29°11' W 086°11'5 9.2
2015-May-09 17:33N 29°16' W 086°09'10 9.5
2015-May-09 16:33N 29°25' W 086°05'10 9.6
2015-May-09 15:33N 29°34' W 086°01'10 9.8
2015-May-09 14:33N 29°43' W 085°57'10 9.9
2015-May-09 13:33N 29°52' W 085°52'10 9.9
2015-May-09 12:33N 30°01' W 085°48'8 8.4
2015-May-09 11:33N 30°08' W 085°43'3 2.7
2015-May-09 10:33N 30°11' W 085°44'0 0.0
2015-May-09 09:32N 30°11' W 085°44'0 0.0
2015-May-09 08:32N 30°11' W 085°44'0 0.0
2015-May-09 07:32N 30°11' W 085°44'0 0.0
2015-May-09 06:32N 30°11' W 085°44'0 0.0
2015-May-09 05:32N 30°11' W 085°44'0 0.0
2015-May-09 04:32N 30°11' W 085°44'0 0.0
2015-May-09 03:33N 30°11' W 085°44'0 0.0
2015-May-09 02:33N 30°11' W 085°44'0 0.0
2015-May-09 01:33N 30°11' W 085°44'0 0.0
2015-May-09 00:33N 30°11' W 085°44'0 0.0
2015-May-08 23:33N 30°11' W 085°44'0 0.0
2015-May-08 22:33N 30°11' W 085°44'0 0.0
2015-May-08 21:33N 30°11' W 085°44'0 0.0
2015-May-08 20:33N 30°11' W 085°44'0 0.0
2015-May-08 19:33N 30°11' W 085°44'0 0.0
2015-May-08 18:33N 30°11' W 085°44'0 0.0
2015-May-08 17:33N 30°11' W 085°44'0 0.0
2015-May-08 16:33N 30°11' W 085°44'0 0.0
2015-May-08 15:33N 30°11' W 085°44'0 0.0
2015-May-08 14:33N 30°11' W 085°44'2 2.3
2015-May-08 13:33N 30°09' W 085°42'6 5.6
2015-May-08 12:33N 30°05' W 085°46'7 7.1
2015-May-08 11:33N 29°59' W 085°49'7 7.3
2015-May-08 10:33N 29°52' W 085°52'7 7.1
2015-May-08 09:33N 29°45' W 085°55'7 7.2
2015-May-08 08:32N 29°38' W 085°59'9 7.1
2015-May-08 07:18N 29°30' W 086°02'8 7.3
2015-May-08 06:14N 29°23' W 086°06'5 7.3
2015-May-08 05:33N 29°19' W 086°08'  
2015-May-01 19:09N 29°51' W 085°53'6 9.5
2015-May-01 18:33N 29°57' W 085°50'10 9.6
2015-May-01 17:33N 30°05' W 085°46'5 5.2
2015-May-01 16:31N 30°11' W 085°44'0 0.0
2015-May-01 15:31N 30°11' W 085°44'0 0.0
2015-May-01 14:31N 30°11' W 085°44'0 0.0
2015-May-01 13:31N 30°11' W 085°44'0 0.5
2015-May-01 12:33N 30°11' W 085°44'0 0.4
2015-May-01 11:32N 30°11' W 085°44'0 0.0
2015-May-01 10:32N 30°11' W 085°44'0 0.0
2015-May-01 09:32N 30°11' W 085°44'0 0.0
2015-May-01 08:29N 30°11' W 085°44'0 0.0
2015-May-01 07:32N 30°11' W 085°44'0 0.0
2015-May-01 06:32N 30°11' W 085°44'0 0.0
2015-May-01 05:32N 30°11' W 085°44'0 0.0
2015-May-01 04:32N 30°11' W 085°44'0 0.0
2015-May-01 03:29N 30°11' W 085°44'0 0.0
2015-May-01 02:32N 30°11' W 085°44'0 0.0
2015-May-01 01:14N 30°11' W 085°44'0 0.0
2015-May-01 00:32N 30°11' W 085°44'0 0.0
2015-Apr-30 23:32N 30°11' W 085°44'0 0.0
2015-Apr-30 22:32N 30°11' W 085°44'0 0.0
2015-Apr-30 21:32N 30°11' W 085°44'0 0.0
2015-Apr-30 20:32N 30°11' W 085°44'0 0.0
2015-Apr-30 19:32N 30°11' W 085°44'0 0.0
2015-Apr-30 18:32N 30°11' W 085°44'0 0.0
2015-Apr-30 17:32N 30°11' W 085°44'0 0.0
2015-Apr-30 16:32N 30°11' W 085°44'0 0.0
2015-Apr-30 14:32N 30°11' W 085°44'0 0.0
2015-Apr-30 13:29N 30°11' W 085°44'0 0.0
2015-Apr-30 12:32N 30°11' W 085°44'0 0.0
2015-Apr-30 11:32N 30°11' W 085°44'0 0.0
2015-Apr-30 10:32N 30°11' W 085°44'0 0.0
2015-Apr-30 09:32N 30°11' W 085°44'0 0.0
2015-Apr-30 08:32N 30°11' W 085°44'0 0.0
2015-Apr-30 07:32N 30°11' W 085°44'0 0.0
2015-Apr-30 06:32N 30°11' W 085°44'0 0.0
2015-Apr-30 05:32N 30°11' W 085°44'0 0.0
2015-Apr-30 04:32N 30°11' W 085°44'0 0.0
2015-Apr-30 03:32N 30°11' W 085°44'0 0.0
2015-Apr-30 02:32N 30°11' W 085°44'0 0.0
2015-Apr-30 01:29N 30°11' W 085°44'0 0.0
2015-Apr-30 00:32N 30°11' W 085°44'0 0.0
2015-Apr-29 23:32N 30°11' W 085°44'  
Track history (hours):
 
Tides and Currents Weather Stations Pressure Air Temp Water Temp Dewpoint Dewpoint Depression Visibility Wind Speed Wind Dir Waves Ship Positions

Campeche Bay

Last reported at 2015-May-09 23:13 UTC. Time now 2015-Sep-02 00:28 UTC.
Position N 28°28' W 086°32'.
Warning: this ship's position is months out of date.

Length 90 m; draft 4.2 m.

Type: Cargo ship. MMSI: 209641000.

Date/timePositionNaut miles runAvg speedWind from/ knotsBaromVisibWave heightAir tempDewpointWater temp
2015-May-09 23:13N 28°28' W 086°32'47 9.1
2015-May-09 18:06N 29°11' W 086°11'5 9.2
2015-May-09 17:33N 29°16' W 086°09'10 9.5
2015-May-09 16:33N 29°25' W 086°05'10 9.6
2015-May-09 15:33N 29°34' W 086°01'10 9.8
2015-May-09 14:33N 29°43' W 085°57'10 9.9
2015-May-09 13:33N 29°52' W 085°52'10 9.9
2015-May-09 12:33N 30°01' W 085°48'8 8.4
2015-May-09 11:33N 30°08' W 085°43'3 2.7
2015-May-09 10:33N 30°11' W 085°44'0 0.0
2015-May-09 09:32N 30°11' W 085°44'0 0.0
2015-May-09 08:32N 30°11' W 085°44'0 0.0
2015-May-09 07:32N 30°11' W 085°44'0 0.0
2015-May-09 06:32N 30°11' W 085°44'0 0.0
2015-May-09 05:32N 30°11' W 085°44'0 0.0
2015-May-09 04:32N 30°11' W 085°44'0 0.0
2015-May-09 03:33N 30°11' W 085°44'0 0.0
2015-May-09 02:33N 30°11' W 085°44'0 0.0
2015-May-09 01:33N 30°11' W 085°44'0 0.0
2015-May-09 00:33N 30°11' W 085°44'0 0.0
2015-May-08 23:33N 30°11' W 085°44'0 0.0
2015-May-08 22:33N 30°11' W 085°44'0 0.0
2015-May-08 21:33N 30°11' W 085°44'0 0.0
2015-May-08 20:33N 30°11' W 085°44'0 0.0
2015-May-08 19:33N 30°11' W 085°44'0 0.0
2015-May-08 18:33N 30°11' W 085°44'0 0.0
2015-May-08 17:33N 30°11' W 085°44'0 0.0
2015-May-08 16:33N 30°11' W 085°44'0 0.0
2015-May-08 15:33N 30°11' W 085°44'0 0.0
2015-May-08 14:33N 30°11' W 085°44'2 2.3
2015-May-08 13:33N 30°09' W 085°42'6 5.6
2015-May-08 12:33N 30°05' W 085°46'7 7.1
2015-May-08 11:33N 29°59' W 085°49'7 7.3
2015-May-08 10:33N 29°52' W 085°52'7 7.1
2015-May-08 09:33N 29°45' W 085°55'7 7.2
2015-May-08 08:32N 29°38' W 085°59'9 7.1
2015-May-08 07:18N 29°30' W 086°02'8 7.3
2015-May-08 06:14N 29°23' W 086°06'5 7.3
2015-May-08 05:33N 29°19' W 086°08'  
2015-May-01 19:09N 29°51' W 085°53'6 9.5
2015-May-01 18:33N 29°57' W 085°50'10 9.6
2015-May-01 17:33N 30°05' W 085°46'5 5.2
2015-May-01 16:31N 30°11' W 085°44'0 0.0
2015-May-01 15:31N 30°11' W 085°44'0 0.0
2015-May-01 14:31N 30°11' W 085°44'0 0.0
2015-May-01 13:31N 30°11' W 085°44'0 0.5
2015-May-01 12:33N 30°11' W 085°44'0 0.4
2015-May-01 11:32N 30°11' W 085°44'0 0.0
2015-May-01 10:32N 30°11' W 085°44'0 0.0
2015-May-01 09:32N 30°11' W 085°44'0 0.0
2015-May-01 08:29N 30°11' W 085°44'0 0.0
2015-May-01 07:32N 30°11' W 085°44'0 0.0
2015-May-01 06:32N 30°11' W 085°44'0 0.0
2015-May-01 05:32N 30°11' W 085°44'0 0.0
2015-May-01 04:32N 30°11' W 085°44'0 0.0
2015-May-01 03:29N 30°11' W 085°44'0 0.0
2015-May-01 02:32N 30°11' W 085°44'0 0.0
2015-May-01 01:14N 30°11' W 085°44'0 0.0
2015-May-01 00:32N 30°11' W 085°44'0 0.0
2015-Apr-30 23:32N 30°11' W 085°44'0 0.0
2015-Apr-30 22:32N 30°11' W 085°44'0 0.0
2015-Apr-30 21:32N 30°11' W 085°44'0 0.0
2015-Apr-30 20:32N 30°11' W 085°44'0 0.0
2015-Apr-30 19:32N 30°11' W 085°44'0 0.0
2015-Apr-30 18:32N 30°11' W 085°44'0 0.0
2015-Apr-30 17:32N 30°11' W 085°44'0 0.0
2015-Apr-30 16:32N 30°11' W 085°44'0 0.0
2015-Apr-30 14:32N 30°11' W 085°44'0 0.0
2015-Apr-30 13:29N 30°11' W 085°44'0 0.0
2015-Apr-30 12:32N 30°11' W 085°44'0 0.0
2015-Apr-30 11:32N 30°11' W 085°44'0 0.0
2015-Apr-30 10:32N 30°11' W 085°44'0 0.0
2015-Apr-30 09:32N 30°11' W 085°44'0 0.0
2015-Apr-30 08:32N 30°11' W 085°44'0 0.0
2015-Apr-30 07:32N 30°11' W 085°44'0 0.0
2015-Apr-30 06:32N 30°11' W 085°44'0 0.0
2015-Apr-30 05:32N 30°11' W 085°44'0 0.0
2015-Apr-30 04:32N 30°11' W 085°44'0 0.0
2015-Apr-30 03:32N 30°11' W 085°44'0 0.0
2015-Apr-30 02:32N 30°11' W 085°44'0 0.0
2015-Apr-30 01:29N 30°11' W 085°44'0 0.0
2015-Apr-30 00:32N 30°11' W 085°44'0 0.0
2015-Apr-29 23:32N 30°11' W 085°44'  

Dump ship's entire track history